TimeCET,TemperatureF,Dew PointF,Humidity,Sea Level PressureIn,VisibilityMPH,Wind Direction,Wind SpeedMPH,Gust SpeedMPH,PrecipitationIn,Events,Conditions,WindDirDegrees,DateUTC
12:09 AM,46.4,46.4,100,29.68,3.1,SE,4.5,-,N/A,,Mostly Cloudy,140,2013-03-07 23:09:00
12:15 AM,46.4,46.4,100,29.68,3.1,SE,4.5,-,N/A,,Mostly Cloudy,140,2013-03-07 23:15:00
12:45 AM,46.4,46.4,100,29.71,3.1,SSE,4.5,-,N/A,,Mostly Cloudy,150,2013-03-07 23:45:00
1:15 AM,46.4,46.4,100,29.68,2.5,SE,6.7,-,N/A,,Mostly Cloudy,140,2013-03-08 00:15:00
1:45 AM,44.6,44.6,100,29.68,1.9,SE,6.7,-,N/A,,Scattered Clouds,140,2013-03-08 00:45:00
2:15 AM,44.6,44.6,100,29.68,1.9,SE,6.7,-,N/A,,Scattered Clouds,140,2013-03-08 01:15:00
2:45 AM,44.6,44.6,100,29.68,1.9,SE,6.7,-,N/A,,Mostly Cloudy,140,2013-03-08 01:45:00
3:15 AM,44.6,44.6,100,29.68,1.9,SSE,6.7,-,N/A,,Mostly Cloudy,150,2013-03-08 02:15:00
3:45 AM,44.6,44.6,100,29.68,1.9,SE,6.7,-,N/A,,Mostly Cloudy,140,2013-03-08 02:45:00
4:15 AM,44.6,44.6,100,29.68,1.9,SSE,6.7,-,N/A,,Mostly Cloudy,150,2013-03-08 03:15:00
4:45 AM,44.6,44.6,100,29.68,1.9,SSE,6.7,-,N/A,,Overcast,150,2013-03-08 03:45:00
5:15 AM,44.6,44.6,100,29.65,1.9,SSE,6.7,-,N/A,,Overcast,160,2013-03-08 04:15:00
5:45 AM,-9999,-9999,N/A,-9999,1.9,SSE,6.7,-,N/A,,Overcast,160,2013-03-08 04:45:00
6:45 AM,44.6,44.6,100,29.65,1.6,SSE,6.7,-,N/A,,Mostly Cloudy,160,2013-03-08 05:45:00
7:15 AM,44.6,44.6,100,29.68,1.9,SSE,4.5,-,N/A,,Mostly Cloudy,160,2013-03-08 06:15:00
7:45 AM,46.4,46.4,100,29.68,1.9,SSE,4.5,-,N/A,,Mostly Cloudy,160,2013-03-08 06:45:00
8:15 AM,46.4,46.4,100,29.68,2.2,SSE,6.7,-,N/A,,Mostly Cloudy,150,2013-03-08 07:15:00
8:45 AM,-9999,-9999,N/A,-9999,6.2,SSE,6.7,-,N/A,,Overcast,160,2013-03-08 07:45:00
9:15 AM,50.0,46.4,87,29.68,4.3,SSE,8.9,-,N/A,,Unknown,160,2013-03-08 08:15:00
9:45 AM,51.8,48.2,88,29.68,5.6,SSE,8.9,-,N/A,,Mostly Cloudy,150,2013-03-08 08:45:00
10:15 AM,53.6,48.2,82,29.68,6.2,SSE,6.7,-,N/A,,Mostly Cloudy,160,2013-03-08 09:15:00
10:45 AM,55.4,48.2,77,29.68,6.2,SSE,6.7,-,N/A,,Mostly Cloudy,160,2013-03-08 09:45:00
11:15 AM,57.2,48.2,72,29.68,6.2,SSE,8.9,-,N/A,,Mostly Cloudy,160,2013-03-08 10:15:00
11:45 AM,-9999,-9999,N/A,-9999,6.2,SSE,11.2,-,N/A,,Overcast,160,2013-03-08 10:45:00
12:15 PM,62.6,50.0,63,29.65,6.2,SSE,8.9,-,N/A,,Mostly Cloudy,160,2013-03-08 11:15:00
12:45 PM,64.4,48.2,56,29.62,6.2,South,8.9,-,N/A,,Scattered Clouds,170,2013-03-08 11:45:00
1:15 PM,64.4,46.4,52,29.62,6.2,SW,6.7,-,N/A,,Mostly Cloudy,220,2013-03-08 12:15:00
2:15 PM,64.4,48.2,56,29.62,6.2,SSE,4.5,-,N/A,,Mostly Cloudy,150,2013-03-08 13:15:00
2:45 PM,-9999,-9999,N/A,-9999,6.2,SSE,8.9,-,N/A,,Overcast,160,2013-03-08 13:45:00
3:15 PM,64.4,46.4,52,29.62,6.2,South,4.5,-,N/A,,Mostly Cloudy,170,2013-03-08 14:15:00
3:26 PM,64.4,46.4,52,29.62,6.2,SSW,6.7,-,N/A,Rain,Light Rain Showers,200,2013-03-08 14:26:00
3:45 PM,62.6,48.2,59,29.59,6.2,South,4.5,-,N/A,,Mostly Cloudy,180,2013-03-08 14:45:00
4:13 PM,62.6,48.2,59,29.59,6.2,WSW,2.2,-,N/A,Rain,Light Rain Showers,240,2013-03-08 15:13:00
4:15 PM,62.6,48.2,59,29.59,6.2,WSW,2.2,-,N/A,Rain,Light Rain Showers,240,2013-03-08 15:15:00
4:30 PM,60.8,50.0,68,29.62,3.1,West,8.9,-,N/A,Rain,Rain Showers,270,2013-03-08 15:30:00
4:45 PM,59.0,51.8,77,29.59,6.2,West,4.5,-,N/A,,Scattered Clouds,270,2013-03-08 15:45:00
5:15 PM,57.2,51.8,82,29.59,6.2,Calm,Calm,-,N/A,,Mostly Cloudy,0,2013-03-08 16:15:00
5:45 PM,55.4,53.6,94,29.62,6.2,WNW,2.2,-,N/A,,Mostly Cloudy,300,2013-03-08 16:45:00
6:10 PM,-9999,-9999,N/A,-9999,6.2,Variable,4.5,-,N/A,,Overcast,0,2013-03-08 17:10:00
6:15 PM,55.4,51.8,88,29.62,6.2,North,4.5,-,N/A,,Mostly Cloudy,10,2013-03-08 17:15:00
6:45 PM,55.4,51.8,88,29.62,-9999.0,NNE,2.2,-,N/A,,Clear,20,2013-03-08 17:45:00
7:15 PM,53.6,51.8,94,29.62,-9999.0,East,4.5,-,N/A,,Clear,100,2013-03-08 18:15:00
7:45 PM,51.8,50.0,94,29.62,-9999.0,ESE,4.5,-,N/A,,Clear,110,2013-03-08 18:45:00
8:15 PM,51.8,50.0,94,29.62,-9999.0,East,2.2,-,N/A,,Clear,80,2013-03-08 19:15:00
8:45 PM,-9999,-9999,N/A,-9999,3.1,Variable,4.5,-,N/A,,Mostly Cloudy,0,2013-03-08 19:45:00
9:12 PM,48.2,48.2,100,29.62,0.5,North,2.2,-,N/A,Fog,Fog,10,2013-03-08 20:12:00
9:15 PM,-9999,-9999,N/A,-9999,1.9,Variable,4.5,-,N/A,Fog,Fog,0,2013-03-08 20:15:00
9:39 PM,48.2,48.2,100,29.62,1.9,Calm,Calm,-,N/A,,Scattered Clouds,0,2013-03-08 20:39:00
9:45 PM,-9999,-9999,N/A,-9999,3.1,Variable,4.5,-,N/A,Fog,Fog,0,2013-03-08 20:45:00
9:57 PM,48.2,48.2,100,29.62,0.9,North,2.2,-,N/A,,Mostly Cloudy,10,2013-03-08 20:57:00
10:07 PM,46.4,46.4,100,29.62,0.5,NNE,2.2,-,N/A,Fog,Fog,30,2013-03-08 21:07:00
10:15 PM,48.2,48.2,100,29.62,0.5,Calm,Calm,-,N/A,Fog,Fog,0,2013-03-08 21:15:00
10:45 PM,50.0,50.0,100,29.62,0.5,Calm,Calm,-,N/A,Fog,Fog,0,2013-03-08 21:45:00
11:15 PM,46.4,46.4,100,29.59,0.5,NNE,2.2,-,N/A,Fog,Fog,30,2013-03-08 22:15:00
11:45 PM,-9999,-9999,N/A,-9999,0.5,North,-9999.0,-,N/A,Fog,Fog,0,2013-03-08 22:45:00